Time;durP1;ratioP1;P1;durP2;ratioP2;P2;SDS_P1;SDS_P2;PMS_P1;PMS_P2;Temp;Humidity;BMP_temperature;BMP_pressure;BME280_temperature;BME280_humidity;BME280_pressure;Samples;Min_cycle;Max_cycle;Signal;HPM_P1;HPM_P2
2022/12/07 00:01:29;;;;;;;85.23;29.63;;;;;;;1.02;100.00;99159.41;4198956;28;22755;-69
2022/12/07 00:04:00;;;;;;;81.50;29.13;;;;;;;0.98;100.00;99160.63;4226206;28;20343;-70
2022/12/07 00:06:27;;;;;;;76.37;29.97;;;;;;;1.04;100.00;99156.69;4210668;28;20235;-68
2022/12/07 00:08:53;;;;;;;70.23;26.50;;;;;;;1.07;100.00;99151.22;4219101;28;20318;-69
2022/12/07 00:11:22;;;;;;;92.43;31.00;;;;;;;1.00;100.00;99155.25;4214371;28;20556;-68
2022/12/07 00:13:56;;;;;;;68.73;27.03;;;;;;;1.09;100.00;99149.31;4210598;28;20241;-68
2022/12/07 00:16:25;;;;;;;79.60;29.30;;;;;;;0.61;100.00;99139.78;4215128;28;20235;-69
2022/12/07 00:18:52;;;;;;;83.97;29.23;;;;;;;0.52;100.00;99144.88;4214250;28;21556;-69
2022/12/07 00:21:21;;;;;;;77.13;28.17;;;;;;;0.51;100.00;99143.19;4209610;28;22494;-69
2022/12/07 00:23:49;;;;;;;70.67;27.57;;;;;;;0.50;100.00;99152.00;4212705;28;20624;-69
2022/12/07 00:26:21;;;;;;;76.63;29.23;;;;;;;0.44;100.00;99147.22;4218938;28;20229;-69
2022/12/07 00:28:53;;;;;;;115.30;31.90;;;;;;;0.24;100.00;99146.06;4224606;28;22362;-69
2022/12/07 00:31:22;;;;;;;114.13;31.60;;;;;;;0.20;100.00;99146.25;4203698;28;21697;-67
2022/12/07 00:33:49;;;;;;;79.13;29.87;;;;;;;0.34;100.00;99141.81;4214790;28;20327;-68
2022/12/07 00:36:18;;;;;;;81.03;29.23;;;;;;;0.40;100.00;99146.63;4216425;28;20460;-69
2022/12/07 00:38:52;;;;;;;80.53;30.73;;;;;;;0.36;100.00;99151.22;4215174;28;20241;-71
2022/12/07 00:41:20;;;;;;;118.07;37.50;;;;;;;0.25;100.00;99135.47;4210851;28;20243;-69
2022/12/07 00:43:48;;;;;;;119.40;39.33;;;;;;;0.23;100.00;99139.97;4210360;28;20236;-71
2022/12/07 00:46:15;;;;;;;142.30;43.43;;;;;;;0.04;100.00;99131.78;4207039;28;20232;-68
2022/12/07 00:48:42;;;;;;;149.13;46.43;;;;;;;0.02;100.00;99136.28;4197532;28;20236;-68
2022/12/07 00:51:13;;;;;;;122.90;41.47;;;;;;;0.16;100.00;99131.75;4207075;28;22350;-67
2022/12/07 00:53:40;;;;;;;153.27;46.70;;;;;;;-0.01;100.00;99146.03;4212975;28;20330;-68
2022/12/07 00:56:15;;;;;;;152.90;45.00;;;;;;;-0.03;100.00;99140.06;4242351;28;21777;-72
2022/12/07 00:58:42;;;;;;;147.40;47.30;;;;;;;0.10;100.00;99139.22;4217040;28;20385;-67
2022/12/07 01:01:10;;;;;;;156.43;49.10;;;;;;;0.09;100.00;99129.69;4209788;28;20601;-66
2022/12/07 01:03:37;;;;;;;148.73;44.70;;;;;;;0.16;100.00;99134.38;4216134;28;21885;-66
2022/12/07 01:06:04;;;;;;;115.40;41.30;;;;;;;0.29;100.00;99130.84;4214866;28;20247;-65
2022/12/07 01:08:30;;;;;;;118.37;43.30;;;;;;;0.32;100.00;99131.44;4232083;28;21663;-66
2022/12/07 01:11:02;;;;;;;124.37;45.17;;;;;;;0.28;100.00;99126.56;4239037;28;20269;-68
2022/12/07 01:13:29;;;;;;;140.97;46.50;;;;;;;0.19;100.00;99128.09;4216196;28;21870;-68
2022/12/07 01:15:59;;;;;;;145.10;45.73;;;;;;;0.21;100.00;99131.41;4221202;28;20232;-65
2022/12/07 01:18:30;;;;;;;130.47;45.47;;;;;;;0.33;100.00;99125.28;4200213;28;22572;-68
2022/12/07 01:21:05;;;;;;;112.37;38.73;;;;;;;0.40;100.00;99117.84;4217354;28;21254;-68
2022/12/07 01:23:34;;;;;;;127.93;44.57;;;;;;;0.26;100.00;99115.38;4216023;28;20496;-63
2022/12/07 01:26:04;;;;;;;118.07;40.57;;;;;;;0.36;100.00;99117.22;4194604;28;25848;-64
2022/12/07 01:28:31;;;;;;;135.60;42.93;;;;;;;0.39;100.00;99114.34;4218909;28;20243;-65
2022/12/07 01:31:07;;;;;;;123.93;42.07;;;;;;;0.37;100.00;99120.66;4240485;28;21963;-63
2022/12/07 01:33:36;;;;;;;149.83;45.53;;;;;;;0.46;100.00;99119.16;4240835;28;21273;-63
2022/12/07 01:36:03;;;;;;;138.60;45.73;;;;;;;0.37;100.00;99120.66;4214045;28;20664;-63
2022/12/07 01:38:31;;;;;;;133.50;43.93;;;;;;;0.41;100.00;99124.72;4221923;28;22994;-64
2022/12/07 01:40:58;;;;;;;121.33;40.67;;;;;;;0.52;100.00;99113.47;4218917;28;23000;-63
2022/12/07 01:43:27;;;;;;;110.53;39.13;;;;;;;0.43;100.00;99114.97;4212119;28;20251;-65
2022/12/07 01:45:55;;;;;;;127.60;40.03;;;;;;;0.45;100.00;99113.09;4224272;28;20230;-64
2022/12/07 01:48:26;;;;;;;109.63;38.60;;;;;;;0.48;100.00;99118.09;4212623;28;20240;-64
2022/12/07 01:50:53;;;;;;;107.13;38.30;;;;;;;0.55;100.00;99115.84;4209212;28;20237;-65
2022/12/07 01:53:20;;;;;;;100.30;35.87;;;;;;;0.48;100.00;99122.50;4224330;28;21084;-65
2022/12/07 01:55:49;;;;;;;88.90;32.73;;;;;;;0.45;100.00;99117.50;4215553;28;20238;-65
2022/12/07 01:58:16;;;;;;;86.50;31.67;;;;;;;0.45;100.00;99114.88;4196158;28;20362;-64
2022/12/07 02:00:42;;;;;;;82.83;32.07;;;;;;;0.42;100.00;99118.53;4213969;28;20257;-66
2022/12/07 02:03:15;;;;;;;79.60;30.03;;;;;;;0.44;100.00;99102.72;4208487;28;20381;-65
2022/12/07 02:05:43;;;;;;;78.00;28.13;;;;;;;0.50;100.00;99105.72;4203066;28;20318;-65
2022/12/07 02:08:11;;;;;;;67.27;25.10;;;;;;;0.61;100.00;99099.69;4201192;28;20668;-63
2022/12/07 02:10:37;;;;;;;58.67;25.10;;;;;;;0.50;100.00;99104.91;4197026;28;20239;-66
2022/12/07 02:13:07;;;;;;;63.13;24.20;;;;;;;0.43;100.00;99099.28;4215331;28;20442;-64
2022/12/07 02:15:45;;;;;;;54.40;21.63;;;;;;;0.52;100.00;99097.78;4208730;28;21894;-66
2022/12/07 02:18:37;;;;;;;39.13;18.67;;;;;;;0.63;100.00;99097.78;4210552;28;21678;-65
2022/12/07 02:21:11;;;;;;;40.73;18.37;;;;;;;0.50;100.00;99095.25;4190962;28;20247;-64
2022/12/07 02:24:05;;;;;;;38.87;17.70;;;;;;;0.54;100.00;99101.09;4213115;28;20324;-64
2022/12/07 02:26:57;;;;;;;39.00;16.90;;;;;;;0.61;100.00;99102.31;4213108;28;21564;-65
2022/12/07 02:29:33;;;;;;;33.83;15.63;;;;;;;0.60;100.00;99100.63;4215603;28;20235;-62
2022/12/07 02:32:25;;;;;;;34.03;15.00;;;;;;;0.66;100.00;99088.88;4225880;28;20242;-64
2022/12/07 02:35:11;;;;;;;31.87;15.33;;;;;;;0.49;100.00;99090.13;4245524;28;20489;-65
2022/12/07 02:38:02;;;;;;;38.90;15.40;;;;;;;0.48;100.00;99096.31;4201049;28;20243;-64
2022/12/07 02:40:39;;;;;;;32.47;15.10;;;;;;;0.53;100.00;99088.94;4218289;28;20413;-66
2022/12/07 02:43:14;;;;;;;31.80;15.23;;;;;;;0.60;100.00;99100.63;4211698;28;20246;-63
2022/12/07 02:45:42;;;;;;;35.73;14.73;;;;;;;0.65;100.00;99097.69;4194566;28;20385;-63
2022/12/07 02:48:10;;;;;;;36.97;15.17;;;;;;;0.59;100.00;99101.59;4211321;28;20331;-65
2022/12/07 02:50:36;;;;;;;33.37;15.57;;;;;;;0.54;100.00;99093.22;4212590;28;20306;-66
2022/12/07 02:53:03;;;;;;;33.93;15.33;;;;;;;0.62;100.00;99088.28;4203058;28;23174;-65
2022/12/07 02:55:36;;;;;;;33.43;15.23;;;;;;;0.57;100.00;99095.63;4211435;28;20248;-65
2022/12/07 02:58:14;;;;;;;34.37;15.20;;;;;;;0.44;100.00;99100.09;4224941;28;20315;-64
2022/12/07 03:00:52;;;;;;;37.10;16.33;;;;;;;0.44;100.00;99095.69;4205016;28;20351;-64
2022/12/07 03:03:18;;;;;;;32.43;15.40;;;;;;;0.40;100.00;99084.63;4204694;28;20243;-66
2022/12/07 03:06:08;;;;;;;33.43;14.97;;;;;;;0.44;100.00;99094.88;4198841;28;20243;-67
2022/12/07 03:08:50;;;;;;;34.83;15.47;;;;;;;0.58;100.00;99086.81;4212658;28;21163;-64
2022/12/07 03:11:42;;;;;;;36.97;16.20;;;;;;;0.50;100.00;99092.63;4202299;28;20233;-64
2022/12/07 03:14:22;;;;;;;31.40;14.70;;;;;;;0.41;100.00;99091.53;4218408;28;21810;-63
2022/12/07 03:16:57;;;;;;;36.97;16.73;;;;;;;0.52;100.00;99087.31;4196886;28;20240;-68
2022/12/07 03:19:25;;;;;;;34.63;15.57;;;;;;;0.47;100.00;99081.53;4204764;28;20282;-64
2022/12/07 03:21:57;;;;;;;39.67;16.57;;;;;;;0.37;100.00;99084.03;4236502;28;21464;-65
2022/12/07 03:24:31;;;;;;;41.73;17.57;;;;;;;0.34;100.00;99085.09;4208533;28;21653;-64
2022/12/07 03:27:08;;;;;;;43.40;17.50;;;;;;;0.45;100.00;99079.06;4199689;28;21430;-65
2022/12/07 03:29:37;;;;;;;41.47;18.33;;;;;;;0.38;100.00;99078.69;4211463;28;20651;-67
2022/12/07 03:32:10;;;;;;;40.37;18.00;;;;;;;0.30;100.00;99069.72;4203387;28;20300;-65
2022/12/07 03:34:46;;;;;;;39.03;17.90;;;;;;;0.24;100.00;99078.03;4211704;28;20632;-63
2022/12/07 03:37:21;;;;;;;38.77;16.57;;;;;;;0.33;100.00;99078.19;4204821;28;20415;-64
2022/12/07 03:39:58;;;;;;;38.17;16.83;;;;;;;0.29;100.00;99074.13;4209532;28;20252;-64
2022/12/07 03:42:26;;;;;;;36.33;15.50;;;;;;;0.26;100.00;99069.13;4192319;28;21225;-63
2022/12/07 03:44:53;;;;;;;33.30;15.33;;;;;;;0.23;100.00;99060.66;4210473;28;20410;-65
2022/12/07 03:47:39;;;;;;;28.10;13.13;;;;;;;0.19;100.00;99057.47;4200525;28;20430;-65
2022/12/07 03:50:27;;;;;;;27.30;12.57;;;;;;;0.20;100.00;99059.13;4214735;28;20224;-61
2022/12/07 03:52:56;;;;;;;24.37;11.93;;;;;;;0.08;100.00;99054.78;4206724;28;20325;-65
2022/12/07 03:55:29;;;;;;;25.23;12.30;;;;;;;0.11;100.00;99057.16;4200881;28;23033;-64
2022/12/07 03:57:59;;;;;;;27.73;12.87;;;;;;;0.06;100.00;99043.59;4190050;28;23950;-63
2022/12/07 04:00:26;;;;;;;26.20;13.30;;;;;;;0.08;100.00;99054.78;4203357;28;20236;-62
2022/12/07 04:02:53;;;;;;;26.97;13.33;;;;;;;0.04;100.00;99055.94;4214155;28;21331;-65
2022/12/07 04:05:19;;;;;;;25.90;12.93;;;;;;;-0.02;100.00;99052.00;4222773;28;23577;-67
2022/12/07 04:07:46;;;;;;;26.40;13.70;;;;;;;-0.06;100.00;99051.38;4206969;28;20229;-65
2022/12/07 04:10:13;;;;;;;26.87;13.60;;;;;;;-0.03;100.00;99048.53;4212132;28;20988;-64
2022/12/07 04:12:40;;;;;;;29.37;13.53;;;;;;;-0.02;100.00;99041.56;4216988;28;20920;-66
2022/12/07 04:15:07;;;;;;;28.80;13.67;;;;;;;-0.06;100.00;99047.94;4196840;28;20282;-64
2022/12/07 04:17:34;;;;;;;26.00;12.43;;;;;;;0.01;100.00;99045.72;4208538;28;20320;-64
2022/12/07 04:20:00;;;;;;;27.80;12.73;;;;;;;-0.11;100.00;99048.28;4207436;28;20241;-67
2022/12/07 04:22:27;;;;;;;35.10;13.77;;;;;;;-0.10;100.00;99049.09;4210465;28;21310;-63
2022/12/07 04:24:54;;;;;;;32.10;12.90;;;;;;;0.01;100.00;99050.97;4205561;28;20305;-69
2022/12/07 04:27:20;;;;;;;27.43;12.73;;;;;;;-0.06;100.00;99051.38;4211742;28;21549;-63
2022/12/07 04:29:47;;;;;;;31.60;14.87;;;;;;;-0.13;100.00;99050.16;4209131;28;20707;-65
2022/12/07 04:32:13;;;;;;;29.97;13.53;;;;;;;-0.15;100.00;99044.22;4205504;28;27264;-63
2022/12/07 04:34:40;;;;;;;28.57;14.00;;;;;;;-0.08;100.00;99048.06;4214215;28;21144;-66
2022/12/07 04:37:06;;;;;;;28.70;13.27;;;;;;;-0.05;100.00;99042.63;4199704;28;22553;-65
2022/12/07 04:39:33;;;;;;;31.30;14.30;;;;;;;-0.14;100.00;99035.44;4223145;28;20227;-63
2022/12/07 04:42:01;;;;;;;28.13;13.30;;;;;;;-0.04;100.00;99041.66;4217862;28;20240;-65
2022/12/07 04:44:28;;;;;;;27.53;13.40;;;;;;;-0.11;100.00;99032.59;4209650;28;20267;-64
2022/12/07 04:46:55;;;;;;;34.80;12.93;;;;;;;-0.16;100.00;99044.34;4212936;28;20296;-66
2022/12/07 04:49:22;;;;;;;32.03;12.93;;;;;;;-0.15;100.00;99041.59;4229966;28;23765;-65
2022/12/07 04:51:50;;;;;;;31.60;13.03;;;;;;;-0.17;100.00;99038.25;4220643;28;20949;-65
2022/12/07 04:54:17;;;;;;;30.40;13.67;;;;;;;-0.19;100.00;99042.75;4206296;28;22361;-65
2022/12/07 04:56:43;;;;;;;31.43;13.80;;;;;;;-0.16;100.00;99033.88;4205713;28;20235;-62
2022/12/07 04:59:11;;;;;;;29.83;13.80;;;;;;;-0.27;100.00;99032.03;4218007;28;20613;-66
2022/12/07 05:01:38;;;;;;;37.67;14.50;;;;;;;-0.20;100.00;99035.88;4209945;28;23625;-63
2022/12/07 05:04:05;;;;;;;31.90;14.93;;;;;;;-0.26;100.00;99028.47;4204009;28;21679;-64
2022/12/07 05:06:31;;;;;;;32.60;13.07;;;;;;;-0.22;100.00;99035.16;4213063;28;20423;-65
2022/12/07 05:08:58;;;;;;;37.20;14.60;;;;;;;-0.19;100.00;99034.91;4212163;28;20242;-64
2022/12/07 05:11:40;;;;;;;33.57;14.70;;;;;;;-0.22;100.00;99032.53;4205569;28;20290;-64
2022/12/07 05:14:15;;;;;;;33.63;15.33;;;;;;;-0.25;100.00;99020.53;4227653;28;20240;-67
2022/12/07 05:16:42;;;;;;;38.03;15.97;;;;;;;-0.30;100.00;99016.59;4203579;28;20228;-67
2022/12/07 05:19:09;;;;;;;31.83;14.77;;;;;;;-0.23;100.00;99017.81;4198165;28;25654;-64
2022/12/07 05:21:36;;;;;;;32.00;15.13;;;;;;;-0.44;100.00;99014.97;4211309;28;20233;-66
2022/12/07 05:24:03;;;;;;;30.90;14.67;;;;;;;-0.24;100.00;99021.34;4214651;28;22026;-65
2022/12/07 05:26:30;;;;;;;37.33;15.60;;;;;;;-0.20;100.00;99019.38;4207447;28;20738;-64
2022/12/07 05:28:57;;;;;;;33.77;14.80;;;;;;;-0.17;100.00;99019.97;4210293;28;22022;-65
2022/12/07 05:31:24;;;;;;;34.23;13.60;;;;;;;-0.23;100.00;99023.03;4213572;28;20228;-64
2022/12/07 05:33:51;;;;;;;30.50;14.40;;;;;;;-0.35;100.00;99018.69;4220788;28;20276;-65
2022/12/07 05:36:18;;;;;;;34.93;14.37;;;;;;;-0.26;100.00;99018.00;4213525;28;20656;-66
2022/12/07 05:38:45;;;;;;;29.47;13.10;;;;;;;-0.29;100.00;99018.25;4210670;28;20426;-64
2022/12/07 05:44:01;;;;;;;31.20;14.23;;;;;;;-0.36;100.00;99024.88;4209629;28;20318;-64
2022/12/07 05:46:28;;;;;;;35.27;14.83;;;;;;;-0.40;100.00;99016.41;4212994;28;23028;-65
2022/12/07 05:48:54;;;;;;;32.37;13.47;;;;;;;-0.40;100.00;99026.03;4212535;28;20228;-64
2022/12/07 05:51:21;;;;;;;32.37;13.20;;;;;;;-0.31;100.00;99025.34;4201250;28;20223;-63
2022/12/07 05:53:47;;;;;;;36.27;13.00;;;;;;;-0.41;100.00;99024.38;4210147;28;21482;-64
2022/12/07 05:56:14;;;;;;;33.03;13.17;;;;;;;-0.52;100.00;99023.34;4222217;28;21473;-63
2022/12/07 06:01:25;;;;;;;30.27;13.13;;;;;;;-0.50;100.00;99020.63;4215529;28;20238;-64
2022/12/07 06:03:52;;;;;;;25.17;12.00;;;;;;;-0.51;100.00;99018.97;4214312;28;20309;-65
2022/12/07 06:06:18;;;;;;;29.17;12.20;;;;;;;-0.39;100.00;99023.31;4205655;28;22006;-64
2022/12/07 06:08:45;;;;;;;31.53;13.17;;;;;;;-0.57;100.00;99011.56;4225852;28;20228;-65
2022/12/07 06:13:56;;;;;;;35.47;12.90;;;;;;;-0.46;100.00;99022.91;4209271;28;20274;-64
2022/12/07 06:16:23;;;;;;;34.83;13.33;;;;;;;-0.48;100.00;99018.75;4209354;28;20228;-66
2022/12/07 06:18:50;;;;;;;29.90;11.77;;;;;;;-0.41;100.00;99013.91;4210134;28;20294;-64
2022/12/07 06:21:16;;;;;;;33.03;12.60;;;;;;;-0.58;100.00;99010.72;4203428;28;20233;-65
2022/12/07 06:23:43;;;;;;;39.10;12.53;;;;;;;-0.54;100.00;99021.78;4204709;28;20951;-63
2022/12/07 06:26:09;;;;;;;34.27;13.23;;;;;;;-0.53;100.00;99016.44;4194052;28;20232;-66
2022/12/07 06:28:36;;;;;;;34.53;12.73;;;;;;;-0.60;100.00;99014.41;4228530;28;20393;-66
2022/12/07 06:31:02;;;;;;;29.53;13.20;;;;;;;-0.53;100.00;99011.22;4227843;28;22699;-65
2022/12/07 06:33:32;;;;;;;28.27;12.97;;;;;;;-0.45;100.00;99008.88;4294880;28;20226;-67
2022/12/07 06:35:59;;;;;;;40.40;14.03;;;;;;;-0.55;100.00;99010.50;4235791;28;20231;-69
2022/12/07 06:38:26;;;;;;;34.93;13.70;;;;;;;-0.46;100.00;99020.28;4216298;28;21141;-67
2022/12/07 06:40:52;;;;;;;29.73;12.73;;;;;;;-0.40;100.00;99010.34;4225320;28;21198;-68
2022/12/07 06:43:19;;;;;;;30.23;12.53;;;;;;;-0.57;100.00;99012.38;4234616;28;20410;-66
2022/12/07 06:45:46;;;;;;;28.73;11.97;;;;;;;-0.57;100.00;99011.56;4215763;28;22953;-69
2022/12/07 06:48:12;;;;;;;37.27;14.53;;;;;;;-0.47;100.00;99010.81;4247383;28;20647;-70
2022/12/07 06:50:39;;;;;;;33.90;13.90;;;;;;;-0.56;100.00;99016.69;4239812;28;20302;-66
2022/12/07 06:53:06;;;;;;;32.73;13.77;;;;;;;-0.61;100.00;99013.53;4220783;28;23159;-65
2022/12/07 06:55:32;;;;;;;32.57;13.27;;;;;;;-0.62;100.00;99011.06;4284474;28;20231;-68
2022/12/07 06:58:01;;;;;;;28.60;13.47;;;;;;;-0.64;100.00;99013.75;4258716;28;20240;-66
2022/12/07 07:00:28;;;;;;;28.53;12.80;;;;;;;-0.59;100.00;99013.44;4246995;28;21163;-66
2022/12/07 07:02:55;;;;;;;34.47;13.87;;;;;;;-0.62;100.00;99017.09;4240552;28;25904;-65
2022/12/07 07:05:21;;;;;;;30.40;13.57;;;;;;;-0.68;100.00;99018.41;4247653;28;21172;-70
2022/12/07 07:07:49;;;;;;;32.90;14.03;;;;;;;-0.60;100.00;99014.41;4220848;28;20250;-65
2022/12/07 07:10:36;;;;;;;30.27;13.73;;;;;;;-0.70;100.00;99017.66;4230902;28;21349;-66
2022/12/07 07:13:03;;;;;;;30.83;13.67;;;;;;;-0.60;100.00;99019.63;4213860;28;21312;-64
2022/12/07 07:15:30;;;;;;;34.83;14.00;;;;;;;-0.45;100.00;99019.34;4217331;28;20962;-66
2022/12/07 07:17:57;;;;;;;31.97;14.07;;;;;;;-0.56;100.00;99011.47;4244063;28;21515;-67
2022/12/07 07:20:31;;;;;;;34.87;14.17;;;;;;;-0.58;100.00;99012.50;4222678;28;23048;-67
2022/12/07 07:22:58;;;;;;;33.00;13.83;;;;;;;-0.59;100.00;99006.44;4212334;28;20752;-66
2022/12/07 07:25:24;;;;;;;33.33;14.03;;;;;;;-0.63;100.00;99012.84;4205492;28;20295;-62
2022/12/07 07:27:51;;;;;;;32.50;14.20;;;;;;;-0.75;100.00;99011.06;4253744;28;21521;-63
2022/12/07 07:30:17;;;;;;;31.00;14.20;;;;;;;-0.77;100.00;99007.72;4230243;28;20229;-65
2022/12/07 07:32:44;;;;;;;34.50;14.10;;;;;;;-0.61;100.00;99010.94;4246548;28;20236;-66
2022/12/07 07:35:10;;;;;;;30.67;13.83;;;;;;;-0.66;100.00;99013.03;4246067;28;20712;-65
2022/12/07 07:37:37;;;;;;;31.23;14.10;;;;;;;-0.68;100.00;99020.16;4245832;28;20458;-63
2022/12/07 07:40:04;;;;;;;27.40;13.13;;;;;;;-0.67;100.00;99020.03;4237766;28;21694;-66
2022/12/07 07:42:31;;;;;;;37.37;14.60;;;;;;;-0.67;100.00;99011.38;4233644;28;20930;-64
2022/12/07 07:44:57;;;;;;;30.77;13.73;;;;;;;-0.69;100.00;99015.88;4258882;28;20250;-68
2022/12/07 07:47:24;;;;;;;32.17;14.40;;;;;;;-0.56;100.00;99011.47;4235934;28;20232;-62
2022/12/07 07:49:50;;;;;;;30.40;13.97;;;;;;;-0.51;100.00;99013.75;4218983;28;20227;-68
2022/12/07 07:52:17;;;;;;;35.37;14.40;;;;;;;-0.60;100.00;99015.22;4208769;28;20247;-66
2022/12/07 07:54:43;;;;;;;31.27;14.57;;;;;;;-0.56;100.00;99024.53;4218116;28;20324;-66
2022/12/07 07:57:10;;;;;;;35.40;14.37;;;;;;;-0.60;100.00;99012.63;4229873;28;22840;-63
2022/12/07 07:59:36;;;;;;;32.03;14.17;;;;;;;-0.50;100.00;99012.78;4214483;28;20235;-65
2022/12/07 08:02:03;;;;;;;31.53;14.43;;;;;;;-0.49;100.00;99014.47;4226927;28;20290;-64
2022/12/07 08:04:29;;;;;;;30.83;13.90;;;;;;;-0.52;100.00;99018.09;4213118;28;20228;-69
2022/12/07 08:06:56;;;;;;;32.67;14.90;;;;;;;-0.49;100.00;99012.69;4208888;28;20235;-69
2022/12/07 08:09:23;;;;;;;31.33;14.57;;;;;;;-0.44;100.00;99018.41;4211481;28;20242;-66
2022/12/07 08:11:50;;;;;;;38.53;15.10;;;;;;;-0.48;100.00;99027.41;4207547;28;23871;-67
2022/12/07 08:14:16;;;;;;;36.67;16.10;;;;;;;-0.51;100.00;99021.59;4186424;28;20236;-66
2022/12/07 08:16:43;;;;;;;41.17;15.27;;;;;;;-0.53;100.00;99020.84;4219075;28;20727;-67
2022/12/07 08:19:10;;;;;;;44.70;16.13;;;;;;;-0.47;100.00;99026.47;4229797;28;21290;-69
2022/12/07 08:21:37;;;;;;;43.57;16.50;;;;;;;-0.51;100.00;99024.19;4222673;28;20355;-64
2022/12/07 08:24:04;;;;;;;44.07;15.80;;;;;;;-0.49;100.00;99025.75;4229438;28;23383;-64
2022/12/07 08:26:30;;;;;;;48.10;17.70;;;;;;;-0.50;100.00;99037.13;4223313;28;20235;-67
2022/12/07 08:28:57;;;;;;;50.87;17.87;;;;;;;-0.46;100.00;99040.38;4251872;28;21880;-66
2022/12/07 08:31:27;;;;;;;51.60;17.57;;;;;;;-0.38;100.00;99045.03;4312036;28;20292;-62
2022/12/07 08:33:54;;;;;;;51.80;19.77;;;;;;;-0.45;100.00;99040.25;4277029;28;20235;-64
2022/12/07 08:36:22;;;;;;;53.80;19.97;;;;;;;-0.41;100.00;99045.28;4228656;28;20229;-66
2022/12/07 08:38:49;;;;;;;56.60;20.70;;;;;;;-0.19;100.00;99055.00;4193103;28;20307;-64
2022/12/07 08:41:35;;;;;;;74.10;21.93;;;;;;;-0.22;100.00;99040.38;4257158;28;20233;-62
2022/12/07 08:44:02;;;;;;;57.73;20.67;;;;;;;-0.15;100.00;99046.84;4205826;28;21967;-63
2022/12/07 08:46:37;;;;;;;54.77;19.80;;;;;;;-0.16;100.00;99052.19;4202448;28;20263;-62
2022/12/07 08:49:16;;;;;;;60.30;21.50;;;;;;;-0.18;100.00;99047.06;4199930;28;21809;-63
2022/12/07 08:51:43;;;;;;;56.00;21.17;;;;;;;0.00;100.00;99050.13;4225683;28;21702;-62
2022/12/07 08:54:12;;;;;;;56.60;21.17;;;;;;;-0.05;100.00;99041.75;4209668;28;23784;-66
2022/12/07 08:56:39;;;;;;;59.40;21.53;;;;;;;0.06;100.00;99043.59;4194118;28;21039;-63
2022/12/07 08:59:06;;;;;;;65.67;21.67;;;;;;;0.13;100.00;99039.59;4205954;28;20254;-64
2022/12/07 09:01:32;;;;;;;59.87;21.33;;;;;;;0.25;100.00;99038.66;4198149;28;20238;-65
2022/12/07 09:03:59;;;;;;;67.53;21.87;;;;;;;0.16;100.00;99028.88;4206849;28;22242;-64
2022/12/07 09:06:27;;;;;;;67.23;22.43;;;;;;;0.22;100.00;99027.63;4198526;28;21505;-65
2022/12/07 09:08:58;;;;;;;61.50;21.03;;;;;;;0.30;100.00;99031.31;4209264;28;21016;-64
2022/12/07 09:11:24;;;;;;;65.27;22.37;;;;;;;0.38;100.00;99023.72;4199766;28;20228;-62
2022/12/07 09:13:54;;;;;;;78.77;25.60;;;;;;;0.36;100.00;99020.41;4214330;28;20929;-64
2022/12/07 09:16:21;;;;;;;71.40;22.80;;;;;;;0.37;100.00;99022.06;4207903;28;21233;-65
2022/12/07 09:18:48;;;;;;;58.37;21.63;;;;;;;0.45;100.00;99025.91;4218480;28;20653;-66
2022/12/07 09:21:14;;;;;;;66.27;20.30;;;;;;;0.47;100.00;99021.34;4216051;28;20303;-65
2022/12/07 09:23:42;;;;;;;66.53;21.33;;;;;;;0.43;100.00;99012.09;4210145;28;22443;-67
2022/12/07 09:26:08;;;;;;;56.87;20.67;;;;;;;0.46;100.00;99011.84;4203366;28;20236;-65
2022/12/07 09:28:37;;;;;;;65.07;20.93;;;;;;;0.49;100.00;99009.00;4230225;28;23082;-66
2022/12/07 09:31:04;;;;;;;61.00;19.77;;;;;;;0.56;100.00;99012.81;4208054;28;20243;-66
2022/12/07 09:33:58;;;;;;;62.43;20.93;;;;;;;0.60;100.00;99009.84;4204576;28;20239;-70
2022/12/07 09:36:25;;;;;;;64.13;20.40;;;;;;;0.59;100.00;99004.75;4205903;28;20281;-70
2022/12/07 09:38:52;;;;;;;60.53;19.90;;;;;;;0.65;100.00;99009.50;4209862;28;20755;-68
2022/12/07 09:41:19;;;;;;;66.43;20.83;;;;;;;0.78;100.00;99007.63;4203988;28;20550;-65
2022/12/07 09:43:46;;;;;;;54.70;18.83;;;;;;;0.69;100.00;99004.88;4215566;28;20231;-68
2022/12/07 09:46:15;;;;;;;61.33;20.23;;;;;;;0.71;100.00;99008.22;4225851;28;23301;-68
2022/12/07 09:48:43;;;;;;;62.50;19.90;;;;;;;0.74;100.00;99006.19;4207397;28;20228;-67
2022/12/07 09:51:21;;;;;;;52.23;18.30;;;;;;;0.66;100.00;99010.34;4209166;28;20307;-66
2022/12/07 09:53:53;;;;;;;53.07;16.80;;;;;;;0.73;100.00;99012.38;4213071;28;20299;-70
2022/12/07 09:56:20;;;;;;;54.67;17.60;;;;;;;0.77;100.00;99007.72;4221407;28;22254;-65
2022/12/07 09:58:47;;;;;;;55.77;16.90;;;;;;;0.76;100.00;99006.91;4227220;28;21628;-66
2022/12/07 10:01:18;;;;;;;49.07;15.53;;;;;;;0.76;100.00;98996.41;4203815;28;20231;-68
2022/12/07 10:03:53;;;;;;;49.47;16.20;;;;;;;0.78;100.00;98994.53;4219361;28;20234;-68
2022/12/07 10:06:20;;;;;;;46.23;16.80;;;;;;;0.73;100.00;98990.59;4192228;28;23127;-70
2022/12/07 10:08:47;;;;;;;46.97;17.13;;;;;;;0.75;100.00;98994.78;4205862;28;20278;-71
2022/12/07 10:11:14;;;;;;;48.57;16.50;;;;;;;0.75;100.00;98994.78;4212557;28;20224;-66
2022/12/07 10:13:48;;;;;;;47.87;16.40;;;;;;;0.86;100.00;98998.34;4202596;28;21874;-66
2022/12/07 10:16:24;;;;;;;45.53;15.80;;;;;;;0.77;100.00;98999.88;4204511;28;20446;-66
2022/12/07 10:18:51;;;;;;;39.63;16.07;;;;;;;0.81;100.00;98994.28;4234765;28;20266;-66
2022/12/07 10:21:27;;;;;;;45.40;16.07;;;;;;;0.77;100.00;98999.88;4209782;28;20382;-69
2022/12/07 10:24:14;;;;;;;41.60;15.53;;;;;;;0.81;100.00;98991.66;4227857;28;20400;-68
2022/12/07 10:26:51;;;;;;;39.90;15.37;;;;;;;0.81;100.00;98991.66;4232159;28;21162;-65
2022/12/07 10:29:47;;;;;;;34.13;13.03;;;;;;;0.78;100.00;98994.53;4208503;28;20777;-66
2022/12/07 10:32:14;;;;;;;33.83;13.83;;;;;;;0.79;100.00;98990.94;4222097;28;25794;-65
2022/12/07 10:34:41;;;;;;;33.20;13.70;;;;;;;0.90;100.00;98997.16;4215734;28;20294;-69
2022/12/07 10:37:17;;;;;;;34.97;13.63;;;;;;;0.78;100.00;98986.66;4215640;28;21534;-68
2022/12/07 10:39:52;;;;;;;32.60;14.30;;;;;;;0.78;100.00;98981.44;4205798;28;20666;-69
2022/12/07 10:42:21;;;;;;;30.03;14.27;;;;;;;0.81;100.00;98983.81;4200279;28;22308;-66
2022/12/07 10:44:49;;;;;;;35.43;15.33;;;;;;;0.94;100.00;98990.72;4240959;28;21375;-68
2022/12/07 10:47:32;;;;;;;35.30;16.03;;;;;;;0.97;100.00;98987.88;4222418;28;21888;-71
2022/12/07 10:50:28;;;;;;;35.50;15.20;;;;;;;0.95;100.00;98989.75;4213693;28;20239;-69
2022/12/07 10:53:05;;;;;;;35.80;15.27;;;;;;;0.99;100.00;98991.19;4209422;28;21358;-67
2022/12/07 10:55:46;;;;;;;34.47;16.20;;;;;;;1.01;100.00;98994.53;4209257;28;20228;-69
2022/12/07 10:58:45;;;;;;;38.43;17.10;;;;;;;0.99;100.00;98992.03;4222591;28;25664;-67
2022/12/07 11:01:20;;;;;;;34.43;16.03;;;;;;;1.04;100.00;98989.88;4237957;28;20802;-69
2022/12/07 11:04:15;;;;;;;37.57;15.80;;;;;;;1.03;100.00;98982.97;4209585;28;21582;-70
2022/12/07 11:06:53;;;;;;;29.00;14.83;;;;;;;1.05;100.00;98986.31;4237148;28;20237;-70
2022/12/07 11:09:51;;;;;;;30.23;15.17;;;;;;;1.09;100.00;98986.91;4245432;28;20237;-68
2022/12/07 11:12:46;;;;;;;32.50;15.63;;;;;;;1.08;100.00;98977.38;4227483;28;20234;-68
2022/12/07 11:15:40;;;;;;;33.47;15.23;;;;;;;1.25;100.00;98983.91;4216021;28;21399;-71
2022/12/07 11:18:14;;;;;;;31.43;15.43;;;;;;;1.16;100.00;98980.22;4217080;28;20228;-67
2022/12/07 11:20:59;;;;;;;33.60;16.13;;;;;;;1.15;100.00;98982.97;4227282;28;20236;-69
2022/12/07 11:23:31;;;;;;;31.43;16.13;;;;;;;1.18;100.00;98985.34;4210335;28;22497;-69
2022/12/07 11:26:07;;;;;;;33.37;14.73;;;;;;;1.15;100.00;98986.41;4204617;28;23729;-66
2022/12/07 11:29:00;;;;;;;33.33;15.47;;;;;;;1.24;100.00;98984.84;4211674;28;26370;-68
2022/12/07 11:31:54;;;;;;;33.10;16.17;;;;;;;1.20;100.00;98979.03;4216090;28;21802;-68
2022/12/07 11:34:39;;;;;;;29.70;14.60;;;;;;;1.31;100.00;98977.34;4217864;28;20244;-70
2022/12/07 11:37:13;;;;;;;28.27;13.90;;;;;;;1.26;100.00;98973.31;4238012;28;22155;-69